sensor_id;sensor_type;location;lat;lon;timestamp;P1;durP1;ratioP1;P2;durP2;ratioP2
56051;SDS011;41919;42.648;23.384;2023-09-07T11:09:14;7.82;;;4.82;;
56051;SDS011;41919;42.648;23.384;2023-09-07T11:11:46;7.97;;;4.95;;
56051;SDS011;41919;42.648;23.384;2023-09-07T11:14:12;6.25;;;4.60;;
56051;SDS011;41919;42.648;23.384;2023-09-07T11:16:37;7.40;;;5.47;;
56051;SDS011;41919;42.648;23.384;2023-09-07T11:19:06;7.82;;;4.75;;
56051;SDS011;41919;42.648;23.384;2023-09-07T11:21:34;6.22;;;4.80;;
56051;SDS011;41919;42.648;23.384;2023-09-07T11:24:00;6.40;;;4.20;;
56051;SDS011;41919;42.648;23.384;2023-09-07T11:26:39;5.93;;;4.68;;
56051;SDS011;41919;42.648;23.384;2023-09-07T11:29:05;8.25;;;4.30;;
56051;SDS011;41919;42.648;23.384;2023-09-07T11:31:31;8.43;;;4.22;;
56051;SDS011;41919;42.648;23.384;2023-09-07T11:33:57;5.55;;;4.05;;
56051;SDS011;41919;42.648;23.384;2023-09-07T11:36:22;8.07;;;4.43;;
56051;SDS011;41919;42.648;23.384;2023-09-07T11:38:49;4.80;;;4.05;;
56051;SDS011;41919;42.648;23.384;2023-09-07T11:41:15;4.78;;;3.80;;
56051;SDS011;41919;42.648;23.384;2023-09-07T11:43:40;4.10;;;3.70;;
56051;SDS011;41919;42.648;23.384;2023-09-07T11:46:07;5.55;;;4.03;;
56051;SDS011;41919;42.648;23.384;2023-09-07T11:48:32;5.05;;;3.70;;
56051;SDS011;41919;42.648;23.384;2023-09-07T11:50:59;5.22;;;4.00;;
56051;SDS011;41919;42.648;23.384;2023-09-07T11:53:25;8.05;;;3.78;;
56051;SDS011;41919;42.648;23.384;2023-09-07T11:55:50;5.20;;;4.07;;
56051;SDS011;41919;42.648;23.384;2023-09-07T11:58:15;4.38;;;3.97;;
56051;SDS011;41919;42.648;23.384;2023-09-07T12:00:41;7.18;;;4.20;;
56051;SDS011;41919;42.648;23.384;2023-09-07T12:03:07;6.57;;;4.50;;
56051;SDS011;41919;42.648;23.384;2023-09-07T12:05:32;4.30;;;3.90;;
56051;SDS011;41919;42.648;23.384;2023-09-07T12:07:58;4.70;;;4.07;;
56051;SDS011;41919;42.648;23.384;2023-09-07T12:10:23;4.85;;;3.45;;
56051;SDS011;41919;42.648;23.384;2023-09-07T12:12:48;3.88;;;3.53;;
56051;SDS011;41919;42.648;23.384;2023-09-07T12:15:14;5.82;;;3.72;;
56051;SDS011;41919;42.648;23.384;2023-09-07T12:17:39;4.68;;;3.75;;
56051;SDS011;41919;42.648;23.384;2023-09-07T12:20:05;6.15;;;3.92;;
56051;SDS011;41919;42.648;23.384;2023-09-07T12:22:34;9.48;;;3.60;;
56051;SDS011;41919;42.648;23.384;2023-09-07T12:25:02;4.22;;;3.83;;
56051;SDS011;41919;42.648;23.384;2023-09-07T12:30:01;5.78;;;3.70;;
56051;SDS011;41919;42.648;23.384;2023-09-07T12:32:27;4.38;;;3.58;;
56051;SDS011;41919;42.648;23.384;2023-09-07T12:34:53;6.32;;;3.55;;
56051;SDS011;41919;42.648;23.384;2023-09-07T12:37:18;5.95;;;3.65;;
56051;SDS011;41919;42.648;23.384;2023-09-07T12:39:44;8.32;;;3.97;;
56051;SDS011;41919;42.648;23.384;2023-09-07T12:42:09;7.07;;;3.70;;
56051;SDS011;41919;42.648;23.384;2023-09-07T12:44:35;7.05;;;3.75;;
56051;SDS011;41919;42.648;23.384;2023-09-07T12:47:00;3.80;;;3.30;;
56051;SDS011;41919;42.648;23.384;2023-09-07T12:49:25;5.43;;;3.50;;
56051;SDS011;41919;42.648;23.384;2023-09-07T12:51:50;5.65;;;3.70;;
56051;SDS011;41919;42.648;23.384;2023-09-07T12:54:16;4.45;;;3.78;;
56051;SDS011;41919;42.648;23.384;2023-09-07T12:56:42;5.85;;;3.28;;
56051;SDS011;41919;42.648;23.384;2023-09-07T12:59:08;9.05;;;3.50;;
56051;SDS011;41919;42.648;23.384;2023-09-07T13:01:33;4.68;;;3.65;;
56051;SDS011;41919;42.648;23.384;2023-09-07T13:03:59;5.00;;;3.20;;
56051;SDS011;41919;42.648;23.384;2023-09-07T13:06:25;3.65;;;3.35;;
56051;SDS011;41919;42.648;23.384;2023-09-07T13:08:50;3.97;;;3.53;;
56051;SDS011;41919;42.648;23.384;2023-09-07T13:11:15;4.60;;;3.25;;
56051;SDS011;41919;42.648;23.384;2023-09-07T13:13:41;4.22;;;3.38;;
56051;SDS011;41919;42.648;23.384;2023-09-07T13:16:06;4.72;;;3.63;;
56051;SDS011;41919;42.648;23.384;2023-09-07T13:18:31;4.70;;;3.20;;
56051;SDS011;41919;42.648;23.384;2023-09-07T13:20:57;4.38;;;3.47;;
56051;SDS011;41919;42.648;23.384;2023-09-07T13:23:29;5.50;;;3.45;;
56051;SDS011;41919;42.648;23.384;2023-09-07T13:25:55;5.03;;;3.67;;
56051;SDS011;41919;42.648;23.384;2023-09-07T13:28:21;3.67;;;3.38;;
56051;SDS011;41919;42.648;23.384;2023-09-07T13:30:46;3.75;;;3.38;;
56051;SDS011;41919;42.648;23.384;2023-09-07T13:33:12;3.85;;;3.55;;
56051;SDS011;41919;42.648;23.384;2023-09-07T13:35:37;5.75;;;3.40;;
56051;SDS011;41919;42.648;23.384;2023-09-07T13:38:04;5.55;;;3.13;;
56051;SDS011;41919;42.648;23.384;2023-09-07T13:40:29;4.35;;;3.45;;
56051;SDS011;41919;42.648;23.384;2023-09-07T13:42:55;5.18;;;3.33;;
56051;SDS011;41919;42.648;23.384;2023-09-07T13:45:21;6.82;;;3.55;;
56051;SDS011;41919;42.648;23.384;2023-09-07T13:47:47;4.07;;;3.15;;
56051;SDS011;41919;42.648;23.384;2023-09-07T13:50:12;7.35;;;3.40;;
56051;SDS011;41919;42.648;23.384;2023-09-07T13:52:38;4.40;;;3.50;;
56051;SDS011;41919;42.648;23.384;2023-09-07T13:55:04;8.50;;;3.40;;
56051;SDS011;41919;42.648;23.384;2023-09-07T13:57:29;4.72;;;3.22;;
56051;SDS011;41919;42.648;23.384;2023-09-07T13:59:55;5.40;;;3.80;;
56051;SDS011;41919;42.648;23.384;2023-09-07T14:02:20;5.78;;;3.30;;
56051;SDS011;41919;42.648;23.384;2023-09-07T14:04:46;9.40;;;3.58;;
56051;SDS011;41919;42.648;23.384;2023-09-07T14:07:11;4.43;;;3.63;;
56051;SDS011;41919;42.648;23.384;2023-09-07T14:09:37;5.07;;;3.42;;
56051;SDS011;41919;42.648;23.384;2023-09-07T14:12:03;7.00;;;3.53;;
56051;SDS011;41919;42.648;23.384;2023-09-07T14:14:29;6.60;;;3.58;;
56051;SDS011;41919;42.648;23.384;2023-09-07T14:16:55;4.20;;;3.72;;
56051;SDS011;41919;42.648;23.384;2023-09-07T14:19:22;6.57;;;3.50;;
56051;SDS011;41919;42.648;23.384;2023-09-07T14:21:48;4.22;;;3.80;;
56051;SDS011;41919;42.648;23.384;2023-09-07T14:24:13;5.80;;;3.67;;
56051;SDS011;41919;42.648;23.384;2023-09-07T14:26:39;6.32;;;3.35;;
56051;SDS011;41919;42.648;23.384;2023-09-07T14:29:04;5.78;;;3.33;;
56051;SDS011;41919;42.648;23.384;2023-09-07T14:31:30;5.13;;;3.10;;
56051;SDS011;41919;42.648;23.384;2023-09-07T14:33:56;4.80;;;3.42;;
56051;SDS011;41919;42.648;23.384;2023-09-07T14:36:21;6.57;;;3.80;;
56051;SDS011;41919;42.648;23.384;2023-09-07T14:38:47;4.28;;;3.20;;
56051;SDS011;41919;42.648;23.384;2023-09-07T14:41:12;3.97;;;3.42;;
56051;SDS011;41919;42.648;23.384;2023-09-07T14:43:48;3.72;;;3.40;;
56051;SDS011;41919;42.648;23.384;2023-09-07T14:46:14;6.18;;;3.50;;
56051;SDS011;41919;42.648;23.384;2023-09-07T14:48:40;6.75;;;3.83;;
56051;SDS011;41919;42.648;23.384;2023-09-07T14:51:06;4.82;;;3.53;;
56051;SDS011;41919;42.648;23.384;2023-09-07T14:53:31;6.78;;;3.50;;
56051;SDS011;41919;42.648;23.384;2023-09-07T14:55:57;3.92;;;3.53;;
56051;SDS011;41919;42.648;23.384;2023-09-07T14:58:22;6.88;;;3.45;;
56051;SDS011;41919;42.648;23.384;2023-09-07T15:00:47;8.52;;;3.60;;
56051;SDS011;41919;42.648;23.384;2023-09-07T15:03:13;5.50;;;3.78;;
56051;SDS011;41919;42.648;23.384;2023-09-07T15:05:38;6.07;;;3.30;;
56051;SDS011;41919;42.648;23.384;2023-09-07T15:08:04;7.65;;;3.53;;
56051;SDS011;41919;42.648;23.384;2023-09-07T15:10:31;4.43;;;3.25;;
56051;SDS011;41919;42.648;23.384;2023-09-07T15:12:59;5.72;;;3.67;;
56051;SDS011;41919;42.648;23.384;2023-09-07T15:15:27;4.22;;;3.83;;
56051;SDS011;41919;42.648;23.384;2023-09-07T15:17:58;6.78;;;3.63;;
56051;SDS011;41919;42.648;23.384;2023-09-07T15:20:24;5.80;;;3.75;;
56051;SDS011;41919;42.648;23.384;2023-09-07T15:22:49;4.18;;;3.50;;
56051;SDS011;41919;42.648;23.384;2023-09-07T15:25:15;5.13;;;3.80;;
56051;SDS011;41919;42.648;23.384;2023-09-07T15:27:43;3.95;;;3.45;;
56051;SDS011;41919;42.648;23.384;2023-09-07T15:30:09;4.18;;;3.58;;
56051;SDS011;41919;42.648;23.384;2023-09-07T15:32:35;7.72;;;3.85;;
56051;SDS011;41919;42.648;23.384;2023-09-07T15:35:00;5.43;;;3.88;;
56051;SDS011;41919;42.648;23.384;2023-09-07T15:37:27;3.95;;;3.45;;
56051;SDS011;41919;42.648;23.384;2023-09-07T15:39:52;4.65;;;3.90;;
56051;SDS011;41919;42.648;23.384;2023-09-07T15:42:18;5.07;;;3.58;;
56051;SDS011;41919;42.648;23.384;2023-09-07T15:44:43;5.25;;;3.60;;
56051;SDS011;41919;42.648;23.384;2023-09-07T15:47:09;5.53;;;3.78;;
56051;SDS011;41919;42.648;23.384;2023-09-07T15:49:35;8.18;;;4.03;;
56051;SDS011;41919;42.648;23.384;2023-09-07T15:52:00;5.63;;;3.47;;
56051;SDS011;41919;42.648;23.384;2023-09-07T15:54:26;4.15;;;3.67;;
56051;SDS011;41919;42.648;23.384;2023-09-07T15:56:51;5.60;;;4.35;;
56051;SDS011;41919;42.648;23.384;2023-09-07T15:59:17;6.47;;;3.85;;
56051;SDS011;41919;42.648;23.384;2023-09-07T16:01:42;9.48;;;3.70;;
56051;SDS011;41919;42.648;23.384;2023-09-07T16:04:07;7.82;;;3.63;;
56051;SDS011;41919;42.648;23.384;2023-09-07T16:06:33;9.07;;;3.80;;
56051;SDS011;41919;42.648;23.384;2023-09-07T16:08:59;8.93;;;4.30;;
56051;SDS011;41919;42.648;23.384;2023-09-07T16:11:24;4.72;;;4.00;;
56051;SDS011;41919;42.648;23.384;2023-09-07T16:13:51;6.22;;;3.80;;
56051;SDS011;41919;42.648;23.384;2023-09-07T16:16:17;6.20;;;3.63;;
56051;SDS011;41919;42.648;23.384;2023-09-07T16:18:43;5.40;;;3.80;;
56051;SDS011;41919;42.648;23.384;2023-09-07T16:21:09;4.28;;;3.65;;
56051;SDS011;41919;42.648;23.384;2023-09-07T16:23:39;5.05;;;3.88;;
56051;SDS011;41919;42.648;23.384;2023-09-07T16:26:05;6.43;;;4.30;;
56051;SDS011;41919;42.648;23.384;2023-09-07T16:28:30;5.72;;;4.65;;
56051;SDS011;41919;42.648;23.384;2023-09-07T16:30:55;5.65;;;3.80;;
56051;SDS011;41919;42.648;23.384;2023-09-07T16:33:21;7.13;;;4.28;;
56051;SDS011;41919;42.648;23.384;2023-09-07T16:35:46;6.20;;;3.97;;
56051;SDS011;41919;42.648;23.384;2023-09-07T16:38:12;5.70;;;3.67;;
56051;SDS011;41919;42.648;23.384;2023-09-07T16:40:39;6.55;;;3.60;;
56051;SDS011;41919;42.648;23.384;2023-09-07T16:43:05;8.38;;;4.00;;
56051;SDS011;41919;42.648;23.384;2023-09-07T16:45:30;10.07;;;4.00;;
56051;SDS011;41919;42.648;23.384;2023-09-07T16:47:55;6.97;;;4.20;;
56051;SDS011;41919;42.648;23.384;2023-09-07T16:50:21;5.75;;;4.03;;
56051;SDS011;41919;42.648;23.384;2023-09-07T16:52:46;7.30;;;3.90;;
56051;SDS011;41919;42.648;23.384;2023-09-07T16:55:12;4.38;;;3.67;;
56051;SDS011;41919;42.648;23.384;2023-09-07T16:57:37;7.25;;;4.13;;
56051;SDS011;41919;42.648;23.384;2023-09-07T17:00:03;7.22;;;4.68;;
56051;SDS011;41919;42.648;23.384;2023-09-07T17:02:29;4.88;;;4.45;;
56051;SDS011;41919;42.648;23.384;2023-09-07T17:04:55;7.82;;;4.25;;
56051;SDS011;41919;42.648;23.384;2023-09-07T17:07:20;5.55;;;4.00;;
56051;SDS011;41919;42.648;23.384;2023-09-07T17:09:48;5.13;;;4.63;;
56051;SDS011;41919;42.648;23.384;2023-09-07T17:12:13;6.13;;;3.85;;
56051;SDS011;41919;42.648;23.384;2023-09-07T17:14:38;7.07;;;4.10;;
56051;SDS011;41919;42.648;23.384;2023-09-07T17:17:06;8.27;;;4.50;;
56051;SDS011;41919;42.648;23.384;2023-09-07T17:19:33;4.35;;;3.95;;
56051;SDS011;41919;42.648;23.384;2023-09-07T17:21:58;6.07;;;4.55;;
56051;SDS011;41919;42.648;23.384;2023-09-07T17:24:24;12.80;;;4.70;;
56051;SDS011;41919;42.648;23.384;2023-09-07T17:26:49;8.50;;;4.68;;
56051;SDS011;41919;42.648;23.384;2023-09-07T17:29:15;7.55;;;4.47;;
56051;SDS011;41919;42.648;23.384;2023-09-07T17:31:40;5.93;;;4.50;;
56051;SDS011;41919;42.648;23.384;2023-09-07T17:34:06;5.50;;;4.80;;
56051;SDS011;41919;42.648;23.384;2023-09-07T17:36:31;10.23;;;5.13;;
56051;SDS011;41919;42.648;23.384;2023-09-07T17:38:57;9.00;;;5.13;;
56051;SDS011;41919;42.648;23.384;2023-09-07T17:41:26;10.30;;;5.22;;
56051;SDS011;41919;42.648;23.384;2023-09-07T17:43:52;8.00;;;5.05;;
56051;SDS011;41919;42.648;23.384;2023-09-07T17:46:19;6.95;;;4.55;;
56051;SDS011;41919;42.648;23.384;2023-09-07T17:48:45;6.35;;;4.80;;
56051;SDS011;41919;42.648;23.384;2023-09-07T17:51:10;8.52;;;4.78;;
56051;SDS011;41919;42.648;23.384;2023-09-07T17:53:37;9.10;;;5.00;;
56051;SDS011;41919;42.648;23.384;2023-09-07T17:56:09;8.93;;;5.05;;
56051;SDS011;41919;42.648;23.384;2023-09-07T17:58:35;7.63;;;5.07;;
56051;SDS011;41919;42.648;23.384;2023-09-07T18:01:03;8.80;;;5.70;;
56051;SDS011;41919;42.648;23.384;2023-09-07T18:03:29;7.70;;;5.57;;
56051;SDS011;41919;42.648;23.384;2023-09-07T18:05:55;10.77;;;6.07;;
56051;SDS011;41919;42.648;23.384;2023-09-07T18:08:22;6.95;;;5.65;;
56051;SDS011;41919;42.648;23.384;2023-09-07T18:10:48;9.70;;;5.72;;
56051;SDS011;41919;42.648;23.384;2023-09-07T18:13:13;10.98;;;6.45;;
56051;SDS011;41919;42.648;23.384;2023-09-07T18:15:38;9.27;;;6.47;;
56051;SDS011;41919;42.648;23.384;2023-09-07T18:18:04;13.85;;;5.60;;
56051;SDS011;41919;42.648;23.384;2023-09-07T18:20:30;9.38;;;4.72;;
56051;SDS011;41919;42.648;23.384;2023-09-07T18:22:55;7.45;;;4.40;;
56051;SDS011;41919;42.648;23.384;2023-09-07T18:25:21;9.55;;;5.70;;
56051;SDS011;41919;42.648;23.384;2023-09-07T18:27:47;8.65;;;5.43;;
56051;SDS011;41919;42.648;23.384;2023-09-07T18:30:12;8.20;;;5.63;;
56051;SDS011;41919;42.648;23.384;2023-09-07T18:32:37;8.48;;;5.15;;
56051;SDS011;41919;42.648;23.384;2023-09-07T18:35:03;6.57;;;4.90;;
56051;SDS011;41919;42.648;23.384;2023-09-07T18:37:31;7.00;;;5.00;;
56051;SDS011;41919;42.648;23.384;2023-09-07T18:39:58;6.88;;;4.72;;
56051;SDS011;41919;42.648;23.384;2023-09-07T18:42:24;6.57;;;4.63;;
56051;SDS011;41919;42.648;23.384;2023-09-07T18:44:50;6.25;;;4.60;;
56051;SDS011;41919;42.648;23.384;2023-09-07T18:47:17;5.68;;;4.50;;
56051;SDS011;41919;42.648;23.384;2023-09-07T18:49:42;8.75;;;5.32;;
56051;SDS011;41919;42.648;23.384;2023-09-07T18:52:08;7.25;;;4.70;;
56051;SDS011;41919;42.648;23.384;2023-09-07T18:54:34;9.30;;;4.75;;
56051;SDS011;41919;42.648;23.384;2023-09-07T18:57:01;7.28;;;5.43;;
56051;SDS011;41919;42.648;23.384;2023-09-07T18:59:26;8.40;;;4.82;;
56051;SDS011;41919;42.648;23.384;2023-09-07T19:01:52;10.27;;;4.57;;
56051;SDS011;41919;42.648;23.384;2023-09-07T19:04:18;7.63;;;4.20;;
56051;SDS011;41919;42.648;23.384;2023-09-07T19:06:44;8.93;;;4.50;;
56051;SDS011;41919;42.648;23.384;2023-09-07T19:09:09;5.10;;;4.10;;
56051;SDS011;41919;42.648;23.384;2023-09-07T19:11:35;6.40;;;4.43;;
56051;SDS011;41919;42.648;23.384;2023-09-07T19:14:01;6.40;;;4.20;;
56051;SDS011;41919;42.648;23.384;2023-09-07T19:16:27;7.40;;;4.85;;
56051;SDS011;41919;42.648;23.384;2023-09-07T19:18:52;6.20;;;5.07;;
56051;SDS011;41919;42.648;23.384;2023-09-07T19:21:18;8.15;;;5.45;;
56051;SDS011;41919;42.648;23.384;2023-09-07T19:23:43;6.93;;;4.90;;
56051;SDS011;41919;42.648;23.384;2023-09-07T19:29:10;6.85;;;5.20;;
56051;SDS011;41919;42.648;23.384;2023-09-07T19:31:36;5.90;;;4.65;;
56051;SDS011;41919;42.648;23.384;2023-09-07T19:34:03;8.43;;;4.65;;
56051;SDS011;41919;42.648;23.384;2023-09-07T19:36:32;6.28;;;4.63;;
56051;SDS011;41919;42.648;23.384;2023-09-07T19:38:58;5.75;;;4.20;;
56051;SDS011;41919;42.648;23.384;2023-09-07T19:41:24;6.30;;;4.40;;
56051;SDS011;41919;42.648;23.384;2023-09-07T19:43:53;6.05;;;4.20;;
56051;SDS011;41919;42.648;23.384;2023-09-07T19:46:19;6.95;;;4.35;;
56051;SDS011;41919;42.648;23.384;2023-09-07T19:48:47;5.60;;;3.80;;
56051;SDS011;41919;42.648;23.384;2023-09-07T19:51:17;7.22;;;4.70;;
56051;SDS011;41919;42.648;23.384;2023-09-07T19:53:43;6.60;;;3.97;;
56051;SDS011;41919;42.648;23.384;2023-09-07T19:56:10;7.13;;;4.15;;
56051;SDS011;41919;42.648;23.384;2023-09-07T19:58:38;5.75;;;4.35;;
56051;SDS011;41919;42.648;23.384;2023-09-07T20:01:03;6.75;;;4.30;;
56051;SDS011;41919;42.648;23.384;2023-09-07T20:03:29;5.45;;;4.60;;
56051;SDS011;41919;42.648;23.384;2023-09-07T20:05:55;4.47;;;3.80;;
56051;SDS011;41919;42.648;23.384;2023-09-07T20:08:20;5.28;;;3.92;;
56051;SDS011;41919;42.648;23.384;2023-09-07T20:10:46;6.72;;;3.88;;
56051;SDS011;41919;42.648;23.384;2023-09-07T20:13:11;6.22;;;4.03;;
56051;SDS011;41919;42.648;23.384;2023-09-07T20:15:37;5.70;;;4.45;;
56051;SDS011;41919;42.648;23.384;2023-09-07T20:18:03;8.18;;;3.95;;
56051;SDS011;41919;42.648;23.384;2023-09-07T20:20:29;6.65;;;4.22;;
56051;SDS011;41919;42.648;23.384;2023-09-07T20:22:55;5.93;;;4.28;;
56051;SDS011;41919;42.648;23.384;2023-09-07T20:25:20;6.47;;;4.43;;
56051;SDS011;41919;42.648;23.384;2023-09-07T20:27:46;5.65;;;4.18;;
56051;SDS011;41919;42.648;23.384;2023-09-07T20:30:13;5.13;;;4.20;;
56051;SDS011;41919;42.648;23.384;2023-09-07T20:32:39;5.25;;;3.88;;
56051;SDS011;41919;42.648;23.384;2023-09-07T20:35:05;5.82;;;3.80;;
56051;SDS011;41919;42.648;23.384;2023-09-07T20:37:31;6.70;;;4.00;;
56051;SDS011;41919;42.648;23.384;2023-09-07T20:39:56;4.35;;;3.65;;
56051;SDS011;41919;42.648;23.384;2023-09-07T20:42:22;5.70;;;4.35;;
56051;SDS011;41919;42.648;23.384;2023-09-07T20:44:48;7.03;;;4.18;;
56051;SDS011;41919;42.648;23.384;2023-09-07T20:47:14;7.85;;;3.92;;
56051;SDS011;41919;42.648;23.384;2023-09-07T20:49:39;6.43;;;4.10;;
56051;SDS011;41919;42.648;23.384;2023-09-07T20:52:05;4.95;;;4.13;;
56051;SDS011;41919;42.648;23.384;2023-09-07T20:54:30;7.13;;;4.55;;
56051;SDS011;41919;42.648;23.384;2023-09-07T20:56:56;6.93;;;4.22;;
56051;SDS011;41919;42.648;23.384;2023-09-07T20:59:21;4.20;;;3.80;;
56051;SDS011;41919;42.648;23.384;2023-09-07T21:01:47;4.85;;;3.75;;
56051;SDS011;41919;42.648;23.384;2023-09-07T21:04:14;5.13;;;4.00;;
56051;SDS011;41919;42.648;23.384;2023-09-07T21:06:40;4.80;;;3.88;;
56051;SDS011;41919;42.648;23.384;2023-09-07T21:09:05;4.95;;;4.40;;
56051;SDS011;41919;42.648;23.384;2023-09-07T21:11:31;5.05;;;3.90;;
56051;SDS011;41919;42.648;23.384;2023-09-07T21:13:56;6.05;;;3.90;;
56051;SDS011;41919;42.648;23.384;2023-09-07T21:16:21;7.57;;;4.55;;
56051;SDS011;41919;42.648;23.384;2023-09-07T21:18:47;9.65;;;3.92;;
56051;SDS011;41919;42.648;23.384;2023-09-07T21:21:13;6.72;;;3.90;;
56051;SDS011;41919;42.648;23.384;2023-09-07T21:23:38;6.18;;;4.05;;
56051;SDS011;41919;42.648;23.384;2023-09-07T21:26:04;5.13;;;3.33;;
56051;SDS011;41919;42.648;23.384;2023-09-07T21:28:29;6.90;;;3.90;;
56051;SDS011;41919;42.648;23.384;2023-09-07T21:30:55;5.75;;;3.88;;
56051;SDS011;41919;42.648;23.384;2023-09-07T21:33:20;4.00;;;3.60;;
56051;SDS011;41919;42.648;23.384;2023-09-07T21:35:46;6.15;;;4.00;;
56051;SDS011;41919;42.648;23.384;2023-09-07T21:38:11;4.75;;;3.58;;
56051;SDS011;41919;42.648;23.384;2023-09-07T21:40:36;9.35;;;3.58;;
56051;SDS011;41919;42.648;23.384;2023-09-07T21:43:02;8.10;;;3.78;;
56051;SDS011;41919;42.648;23.384;2023-09-07T21:45:27;5.18;;;3.60;;
56051;SDS011;41919;42.648;23.384;2023-09-07T21:47:53;5.80;;;4.40;;
56051;SDS011;41919;42.648;23.384;2023-09-07T21:50:18;6.30;;;4.35;;
56051;SDS011;41919;42.648;23.384;2023-09-07T21:52:43;5.95;;;4.20;;
56051;SDS011;41919;42.648;23.384;2023-09-07T21:55:09;6.88;;;4.25;;
56051;SDS011;41919;42.648;23.384;2023-09-07T21:57:34;7.53;;;3.80;;
56051;SDS011;41919;42.648;23.384;2023-09-07T21:59:59;7.22;;;4.88;;
56051;SDS011;41919;42.648;23.384;2023-09-07T22:02:25;6.65;;;4.13;;
56051;SDS011;41919;42.648;23.384;2023-09-07T22:04:51;5.32;;;4.28;;
56051;SDS011;41919;42.648;23.384;2023-09-07T22:07:17;7.43;;;3.67;;
56051;SDS011;41919;42.648;23.384;2023-09-07T22:09:43;4.70;;;3.70;;
56051;SDS011;41919;42.648;23.384;2023-09-07T22:12:08;4.03;;;3.40;;
56051;SDS011;41919;42.648;23.384;2023-09-07T22:14:33;5.18;;;4.22;;
56051;SDS011;41919;42.648;23.384;2023-09-07T22:16:59;5.15;;;4.18;;
56051;SDS011;41919;42.648;23.384;2023-09-07T22:19:25;8.98;;;3.90;;
56051;SDS011;41919;42.648;23.384;2023-09-07T22:21:51;5.28;;;4.05;;
56051;SDS011;41919;42.648;23.384;2023-09-07T22:24:16;4.60;;;4.20;;
56051;SDS011;41919;42.648;23.384;2023-09-07T22:26:42;7.25;;;4.53;;
56051;SDS011;41919;42.648;23.384;2023-09-07T22:29:08;4.30;;;3.70;;
56051;SDS011;41919;42.648;23.384;2023-09-07T22:31:34;7.85;;;4.32;;
56051;SDS011;41919;42.648;23.384;2023-09-07T22:34:00;8.25;;;4.13;;
56051;SDS011;41919;42.648;23.384;2023-09-07T22:36:25;7.72;;;4.32;;
56051;SDS011;41919;42.648;23.384;2023-09-07T22:38:50;8.30;;;4.20;;
56051;SDS011;41919;42.648;23.384;2023-09-07T22:41:18;7.75;;;5.28;;
56051;SDS011;41919;42.648;23.384;2023-09-07T22:43:44;6.80;;;5.10;;
56051;SDS011;41919;42.648;23.384;2023-09-07T22:46:09;6.85;;;4.43;;
56051;SDS011;41919;42.648;23.384;2023-09-07T22:48:35;9.82;;;5.35;;
56051;SDS011;41919;42.648;23.384;2023-09-07T22:51:00;8.98;;;4.50;;
56051;SDS011;41919;42.648;23.384;2023-09-07T22:53:26;5.97;;;4.43;;
56051;SDS011;41919;42.648;23.384;2023-09-07T22:55:51;5.97;;;5.10;;
56051;SDS011;41919;42.648;23.384;2023-09-07T22:58:17;10.02;;;4.72;;
56051;SDS011;41919;42.648;23.384;2023-09-07T23:00:44;5.63;;;4.60;;
56051;SDS011;41919;42.648;23.384;2023-09-07T23:03:11;8.38;;;4.57;;
56051;SDS011;41919;42.648;23.384;2023-09-07T23:05:40;5.78;;;4.95;;
56051;SDS011;41919;42.648;23.384;2023-09-07T23:08:12;6.22;;;5.50;;
56051;SDS011;41919;42.648;23.384;2023-09-07T23:10:38;8.77;;;7.00;;
56051;SDS011;41919;42.648;23.384;2023-09-07T23:13:04;8.60;;;7.05;;
56051;SDS011;41919;42.648;23.384;2023-09-07T23:15:31;12.15;;;7.75;;
56051;SDS011;41919;42.648;23.384;2023-09-07T23:17:58;10.88;;;7.72;;
56051;SDS011;41919;42.648;23.384;2023-09-07T23:20:24;8.57;;;6.32;;
56051;SDS011;41919;42.648;23.384;2023-09-07T23:22:49;8.18;;;6.63;;
56051;SDS011;41919;42.648;23.384;2023-09-07T23:25:15;9.68;;;6.95;;
56051;SDS011;41919;42.648;23.384;2023-09-07T23:27:40;7.88;;;6.20;;
56051;SDS011;41919;42.648;23.384;2023-09-07T23:30:07;10.57;;;7.05;;
56051;SDS011;41919;42.648;23.384;2023-09-07T23:32:35;7.47;;;6.63;;
56051;SDS011;41919;42.648;23.384;2023-09-07T23:35:03;10.57;;;8.43;;
56051;SDS011;41919;42.648;23.384;2023-09-07T23:37:30;10.15;;;8.07;;
56051;SDS011;41919;42.648;23.384;2023-09-07T23:39:57;11.77;;;9.10;;
56051;SDS011;41919;42.648;23.384;2023-09-07T23:42:22;14.13;;;10.82;;
56051;SDS011;41919;42.648;23.384;2023-09-07T23:44:48;12.07;;;9.55;;
56051;SDS011;41919;42.648;23.384;2023-09-07T23:47:13;13.90;;;9.40;;
56051;SDS011;41919;42.648;23.384;2023-09-07T23:49:38;11.77;;;10.02;;
56051;SDS011;41919;42.648;23.384;2023-09-07T23:52:04;14.02;;;10.35;;
56051;SDS011;41919;42.648;23.384;2023-09-07T23:54:31;14.18;;;9.88;;
56051;SDS011;41919;42.648;23.384;2023-09-07T23:56:56;13.60;;;9.52;;
56051;SDS011;41919;42.648;23.384;2023-09-07T23:59:22;13.27;;;9.30;;
